sensor_id;sensor_type;location;lat;lon;timestamp;P1;durP1;ratioP1;P2;durP2;ratioP2
8478;SDS011;4276;49.354;6.804;2023-06-14T00:02:18;4.80;;;4.50;;
8478;SDS011;4276;49.354;6.804;2023-06-14T00:04:46;5.10;;;4.63;;
8478;SDS011;4276;49.354;6.804;2023-06-14T00:07:14;5.68;;;4.53;;
8478;SDS011;4276;49.354;6.804;2023-06-14T00:09:42;4.95;;;4.50;;
8478;SDS011;4276;49.354;6.804;2023-06-14T00:12:09;4.80;;;4.47;;
8478;SDS011;4276;49.354;6.804;2023-06-14T00:14:36;4.57;;;4.18;;
8478;SDS011;4276;49.354;6.804;2023-06-14T00:17:02;5.63;;;4.85;;
8478;SDS011;4276;49.354;6.804;2023-06-14T00:19:29;4.90;;;4.50;;
8478;SDS011;4276;49.354;6.804;2023-06-14T00:21:59;5.03;;;4.63;;
8478;SDS011;4276;49.354;6.804;2023-06-14T00:24:25;5.18;;;4.78;;
8478;SDS011;4276;49.354;6.804;2023-06-14T00:26:52;4.60;;;4.20;;
8478;SDS011;4276;49.354;6.804;2023-06-14T00:29:18;5.20;;;4.72;;
8478;SDS011;4276;49.354;6.804;2023-06-14T00:31:45;5.25;;;4.85;;
8478;SDS011;4276;49.354;6.804;2023-06-14T00:34:12;5.45;;;4.40;;
8478;SDS011;4276;49.354;6.804;2023-06-14T00:36:38;5.00;;;4.57;;
8478;SDS011;4276;49.354;6.804;2023-06-14T00:39:04;4.40;;;4.10;;
8478;SDS011;4276;49.354;6.804;2023-06-14T00:41:31;6.53;;;4.60;;
8478;SDS011;4276;49.354;6.804;2023-06-14T00:43:57;4.78;;;4.38;;
8478;SDS011;4276;49.354;6.804;2023-06-14T00:46:26;4.88;;;4.47;;
8478;SDS011;4276;49.354;6.804;2023-06-14T00:48:52;4.45;;;4.10;;
8478;SDS011;4276;49.354;6.804;2023-06-14T00:51:19;4.88;;;4.47;;
8478;SDS011;4276;49.354;6.804;2023-06-14T00:53:46;5.38;;;4.97;;
8478;SDS011;4276;49.354;6.804;2023-06-14T00:56:13;5.05;;;4.65;;
8478;SDS011;4276;49.354;6.804;2023-06-14T00:58:41;4.70;;;4.30;;
8478;SDS011;4276;49.354;6.804;2023-06-14T01:01:08;4.60;;;4.20;;
8478;SDS011;4276;49.354;6.804;2023-06-14T01:03:34;5.63;;;5.20;;
8478;SDS011;4276;49.354;6.804;2023-06-14T01:06:23;6.15;;;4.63;;
8478;SDS011;4276;49.354;6.804;2023-06-14T01:11:47;5.38;;;4.95;;
8478;SDS011;4276;49.354;6.804;2023-06-14T01:14:17;5.05;;;4.65;;
8478;SDS011;4276;49.354;6.804;2023-06-14T01:16:44;4.70;;;4.40;;
8478;SDS011;4276;49.354;6.804;2023-06-14T01:19:12;5.05;;;4.57;;
8478;SDS011;4276;49.354;6.804;2023-06-14T01:21:40;4.75;;;4.45;;
8478;SDS011;4276;49.354;6.804;2023-06-14T01:24:08;6.68;;;4.85;;
8478;SDS011;4276;49.354;6.804;2023-06-14T01:26:35;5.45;;;5.05;;
8478;SDS011;4276;49.354;6.804;2023-06-14T01:29:04;4.60;;;4.30;;
8478;SDS011;4276;49.354;6.804;2023-06-14T01:31:31;5.78;;;5.28;;
8478;SDS011;4276;49.354;6.804;2023-06-14T01:34:08;4.90;;;4.50;;
8478;SDS011;4276;49.354;6.804;2023-06-14T01:36:35;5.88;;;5.30;;
8478;SDS011;4276;49.354;6.804;2023-06-14T01:39:03;5.25;;;4.75;;
8478;SDS011;4276;49.354;6.804;2023-06-14T01:41:30;5.10;;;4.70;;
8478;SDS011;4276;49.354;6.804;2023-06-14T01:43:57;5.18;;;4.70;;
8478;SDS011;4276;49.354;6.804;2023-06-14T01:46:24;4.60;;;4.30;;
8478;SDS011;4276;49.354;6.804;2023-06-14T01:48:51;4.85;;;4.45;;
8478;SDS011;4276;49.354;6.804;2023-06-14T01:51:18;4.80;;;4.38;;
8478;SDS011;4276;49.354;6.804;2023-06-14T01:53:44;4.82;;;4.53;;
8478;SDS011;4276;49.354;6.804;2023-06-14T01:56:11;4.45;;;4.15;;
8478;SDS011;4276;49.354;6.804;2023-06-14T01:58:38;4.93;;;4.47;;
8478;SDS011;4276;49.354;6.804;2023-06-14T02:01:05;5.28;;;4.88;;
8478;SDS011;4276;49.354;6.804;2023-06-14T02:03:33;5.07;;;4.60;;
8478;SDS011;4276;49.354;6.804;2023-06-14T02:06:00;4.72;;;4.43;;
8478;SDS011;4276;49.354;6.804;2023-06-14T02:08:27;4.50;;;4.20;;
8478;SDS011;4276;49.354;6.804;2023-06-14T02:10:53;5.05;;;4.65;;
8478;SDS011;4276;49.354;6.804;2023-06-14T02:13:20;4.90;;;4.60;;
8478;SDS011;4276;49.354;6.804;2023-06-14T02:15:46;5.13;;;4.50;;
8478;SDS011;4276;49.354;6.804;2023-06-14T02:18:17;4.97;;;4.63;;
8478;SDS011;4276;49.354;6.804;2023-06-14T02:20:43;4.88;;;4.43;;
8478;SDS011;4276;49.354;6.804;2023-06-14T02:23:10;4.85;;;4.55;;
8478;SDS011;4276;49.354;6.804;2023-06-14T02:25:36;5.00;;;4.60;;
8478;SDS011;4276;49.354;6.804;2023-06-14T02:28:03;5.60;;;5.20;;
8478;SDS011;4276;49.354;6.804;2023-06-14T02:30:30;5.07;;;4.57;;
8478;SDS011;4276;49.354;6.804;2023-06-14T02:32:57;5.15;;;4.75;;
8478;SDS011;4276;49.354;6.804;2023-06-14T02:35:23;4.80;;;4.50;;
8478;SDS011;4276;49.354;6.804;2023-06-14T02:37:52;5.90;;;5.05;;
8478;SDS011;4276;49.354;6.804;2023-06-14T02:40:19;4.90;;;4.40;;
8478;SDS011;4276;49.354;6.804;2023-06-14T02:42:46;5.05;;;4.55;;
8478;SDS011;4276;49.354;6.804;2023-06-14T02:45:12;5.50;;;5.10;;
8478;SDS011;4276;49.354;6.804;2023-06-14T02:47:39;5.43;;;4.93;;
8478;SDS011;4276;49.354;6.804;2023-06-14T02:50:06;5.15;;;4.65;;
8478;SDS011;4276;49.354;6.804;2023-06-14T02:52:33;5.20;;;4.80;;
8478;SDS011;4276;49.354;6.804;2023-06-14T02:55:00;5.05;;;4.65;;
8478;SDS011;4276;49.354;6.804;2023-06-14T02:57:26;5.20;;;4.80;;
8478;SDS011;4276;49.354;6.804;2023-06-14T02:59:53;5.07;;;4.68;;
8478;SDS011;4276;49.354;6.804;2023-06-14T03:02:20;4.88;;;4.55;;
8478;SDS011;4276;49.354;6.804;2023-06-14T03:04:46;5.07;;;4.68;;
8478;SDS011;4276;49.354;6.804;2023-06-14T03:07:13;5.18;;;4.72;;
8478;SDS011;4276;49.354;6.804;2023-06-14T03:09:46;5.00;;;4.60;;
8478;SDS011;4276;49.354;6.804;2023-06-14T03:12:14;5.28;;;4.88;;
8478;SDS011;4276;49.354;6.804;2023-06-14T03:14:41;5.07;;;4.68;;
8478;SDS011;4276;49.354;6.804;2023-06-14T03:17:08;5.10;;;4.78;;
8478;SDS011;4276;49.354;6.804;2023-06-14T03:19:36;5.18;;;4.68;;
8478;SDS011;4276;49.354;6.804;2023-06-14T03:22:02;5.88;;;5.38;;
8478;SDS011;4276;49.354;6.804;2023-06-14T03:24:29;5.30;;;4.90;;
8478;SDS011;4276;49.354;6.804;2023-06-14T03:26:58;5.38;;;5.00;;
8478;SDS011;4276;49.354;6.804;2023-06-14T03:29:24;5.65;;;5.25;;
8478;SDS011;4276;49.354;6.804;2023-06-14T03:31:58;5.68;;;5.18;;
8478;SDS011;4276;49.354;6.804;2023-06-14T03:34:26;5.53;;;5.13;;
8478;SDS011;4276;49.354;6.804;2023-06-14T03:36:53;6.28;;;5.28;;
8478;SDS011;4276;49.354;6.804;2023-06-14T03:39:20;5.63;;;5.00;;
8478;SDS011;4276;49.354;6.804;2023-06-14T03:41:46;6.10;;;5.25;;
8478;SDS011;4276;49.354;6.804;2023-06-14T03:44:14;5.45;;;4.95;;
8478;SDS011;4276;49.354;6.804;2023-06-14T03:46:41;4.95;;;4.65;;
8478;SDS011;4276;49.354;6.804;2023-06-14T03:49:08;5.03;;;4.60;;
8478;SDS011;4276;49.354;6.804;2023-06-14T03:51:34;5.35;;;4.95;;
8478;SDS011;4276;49.354;6.804;2023-06-14T03:54:01;5.00;;;4.60;;
8478;SDS011;4276;49.354;6.804;2023-06-14T03:56:48;5.78;;;5.38;;
8478;SDS011;4276;49.354;6.804;2023-06-14T03:59:14;5.32;;;4.93;;
8478;SDS011;4276;49.354;6.804;2023-06-14T04:01:41;5.38;;;5.07;;
8478;SDS011;4276;49.354;6.804;2023-06-14T04:04:12;5.50;;;5.00;;
8478;SDS011;4276;49.354;6.804;2023-06-14T04:06:38;7.00;;;5.30;;
8478;SDS011;4276;49.354;6.804;2023-06-14T04:09:07;5.50;;;5.00;;
8478;SDS011;4276;49.354;6.804;2023-06-14T04:11:34;5.13;;;4.72;;
8478;SDS011;4276;49.354;6.804;2023-06-14T04:14:01;5.32;;;4.90;;
8478;SDS011;4276;49.354;6.804;2023-06-14T04:16:28;5.35;;;4.95;;
8478;SDS011;4276;49.354;6.804;2023-06-14T04:18:55;5.93;;;5.53;;
8478;SDS011;4276;49.354;6.804;2023-06-14T04:21:21;6.00;;;5.53;;
8478;SDS011;4276;49.354;6.804;2023-06-14T04:23:49;5.63;;;5.15;;
8478;SDS011;4276;49.354;6.804;2023-06-14T04:26:19;5.80;;;5.20;;
8478;SDS011;4276;49.354;6.804;2023-06-14T04:28:48;5.50;;;5.03;;
8478;SDS011;4276;49.354;6.804;2023-06-14T04:31:15;6.00;;;4.97;;
8478;SDS011;4276;49.354;6.804;2023-06-14T04:33:42;5.05;;;4.63;;
8478;SDS011;4276;49.354;6.804;2023-06-14T04:36:10;5.88;;;5.32;;
8478;SDS011;4276;49.354;6.804;2023-06-14T04:38:38;6.20;;;5.57;;
8478;SDS011;4276;49.354;6.804;2023-06-14T04:41:04;5.10;;;4.60;;
8478;SDS011;4276;49.354;6.804;2023-06-14T04:43:31;7.05;;;5.13;;
8478;SDS011;4276;49.354;6.804;2023-06-14T04:46:07;5.50;;;4.95;;
8478;SDS011;4276;49.354;6.804;2023-06-14T04:48:37;6.03;;;5.45;;
8478;SDS011;4276;49.354;6.804;2023-06-14T04:51:07;5.15;;;4.78;;
8478;SDS011;4276;49.354;6.804;2023-06-14T04:53:34;5.60;;;5.10;;
8478;SDS011;4276;49.354;6.804;2023-06-14T04:56:01;5.68;;;5.28;;
8478;SDS011;4276;49.354;6.804;2023-06-14T04:58:27;13.43;;;5.45;;
8478;SDS011;4276;49.354;6.804;2023-06-14T05:00:55;12.40;;;6.32;;
8478;SDS011;4276;49.354;6.804;2023-06-14T05:03:22;25.35;;;7.13;;
8478;SDS011;4276;49.354;6.804;2023-06-14T05:05:50;11.88;;;6.28;;
8478;SDS011;4276;49.354;6.804;2023-06-14T05:08:17;6.35;;;5.07;;
8478;SDS011;4276;49.354;6.804;2023-06-14T05:10:43;5.57;;;5.07;;
8478;SDS011;4276;49.354;6.804;2023-06-14T05:13:10;5.82;;;5.22;;
8478;SDS011;4276;49.354;6.804;2023-06-14T05:15:37;7.53;;;5.90;;
8478;SDS011;4276;49.354;6.804;2023-06-14T05:18:04;5.93;;;5.45;;
8478;SDS011;4276;49.354;6.804;2023-06-14T05:20:30;5.65;;;5.15;;
8478;SDS011;4276;49.354;6.804;2023-06-14T05:22:57;5.63;;;5.18;;
8478;SDS011;4276;49.354;6.804;2023-06-14T05:25:24;5.20;;;4.80;;
8478;SDS011;4276;49.354;6.804;2023-06-14T05:27:50;4.97;;;4.55;;
8478;SDS011;4276;49.354;6.804;2023-06-14T05:30:17;6.10;;;5.50;;
8478;SDS011;4276;49.354;6.804;2023-06-14T05:32:43;6.05;;;5.45;;
8478;SDS011;4276;49.354;6.804;2023-06-14T05:35:11;6.28;;;5.72;;
8478;SDS011;4276;49.354;6.804;2023-06-14T05:37:37;5.68;;;5.22;;
8478;SDS011;4276;49.354;6.804;2023-06-14T05:40:04;8.00;;;5.38;;
8478;SDS011;4276;49.354;6.804;2023-06-14T05:42:35;8.10;;;6.00;;
8478;SDS011;4276;49.354;6.804;2023-06-14T05:45:01;9.95;;;6.97;;
8478;SDS011;4276;49.354;6.804;2023-06-14T05:47:28;7.68;;;6.88;;
8478;SDS011;4276;49.354;6.804;2023-06-14T05:49:54;6.15;;;5.43;;
8478;SDS011;4276;49.354;6.804;2023-06-14T05:52:21;5.20;;;4.80;;
8478;SDS011;4276;49.354;6.804;2023-06-14T05:54:48;4.40;;;4.10;;
8478;SDS011;4276;49.354;6.804;2023-06-14T05:57:15;4.82;;;4.45;;
8478;SDS011;4276;49.354;6.804;2023-06-14T05:59:41;4.85;;;4.45;;
8478;SDS011;4276;49.354;6.804;2023-06-14T06:02:08;4.63;;;4.22;;
8478;SDS011;4276;49.354;6.804;2023-06-14T06:04:34;4.80;;;4.40;;
8478;SDS011;4276;49.354;6.804;2023-06-14T06:07:02;5.18;;;4.32;;
8478;SDS011;4276;49.354;6.804;2023-06-14T06:09:29;4.40;;;3.80;;
8478;SDS011;4276;49.354;6.804;2023-06-14T06:11:56;4.60;;;4.20;;
8478;SDS011;4276;49.354;6.804;2023-06-14T06:14:22;5.07;;;4.07;;
8478;SDS011;4276;49.354;6.804;2023-06-14T06:16:49;4.68;;;4.28;;
8478;SDS011;4276;49.354;6.804;2023-06-14T06:19:15;5.85;;;4.18;;
8478;SDS011;4276;49.354;6.804;2023-06-14T06:21:42;4.57;;;4.18;;
8478;SDS011;4276;49.354;6.804;2023-06-14T06:24:08;6.15;;;4.35;;
8478;SDS011;4276;49.354;6.804;2023-06-14T06:26:35;4.38;;;3.97;;
8478;SDS011;4276;49.354;6.804;2023-06-14T06:29:02;4.55;;;4.25;;
8478;SDS011;4276;49.354;6.804;2023-06-14T06:31:29;6.10;;;4.50;;
8478;SDS011;4276;49.354;6.804;2023-06-14T06:33:55;4.47;;;4.07;;
8478;SDS011;4276;49.354;6.804;2023-06-14T06:36:22;4.68;;;4.35;;
8478;SDS011;4276;49.354;6.804;2023-06-14T06:38:48;5.65;;;4.07;;
8478;SDS011;4276;49.354;6.804;2023-06-14T06:41:15;4.18;;;3.88;;
8478;SDS011;4276;49.354;6.804;2023-06-14T06:43:42;6.10;;;4.20;;
8478;SDS011;4276;49.354;6.804;2023-06-14T06:46:08;4.22;;;3.92;;
8478;SDS011;4276;49.354;6.804;2023-06-14T06:48:35;5.28;;;4.15;;
8478;SDS011;4276;49.354;6.804;2023-06-14T06:51:01;4.68;;;4.15;;
8478;SDS011;4276;49.354;6.804;2023-06-14T06:53:28;5.00;;;4.50;;
8478;SDS011;4276;49.354;6.804;2023-06-14T06:56:06;5.75;;;4.32;;
8478;SDS011;4276;49.354;6.804;2023-06-14T06:58:33;5.97;;;3.97;;
8478;SDS011;4276;49.354;6.804;2023-06-14T07:01:00;3.88;;;3.47;;
8478;SDS011;4276;49.354;6.804;2023-06-14T07:03:26;4.25;;;3.95;;
8478;SDS011;4276;49.354;6.804;2023-06-14T07:05:53;4.70;;;4.28;;
8478;SDS011;4276;49.354;6.804;2023-06-14T07:08:19;5.90;;;4.10;;
8478;SDS011;4276;49.354;6.804;2023-06-14T07:10:46;4.30;;;4.00;;
8478;SDS011;4276;49.354;6.804;2023-06-14T07:13:12;4.65;;;4.22;;
8478;SDS011;4276;49.354;6.804;2023-06-14T07:15:40;4.55;;;4.18;;
8478;SDS011;4276;49.354;6.804;2023-06-14T07:18:06;8.63;;;4.20;;
8478;SDS011;4276;49.354;6.804;2023-06-14T07:20:34;4.80;;;3.90;;
8478;SDS011;4276;49.354;6.804;2023-06-14T07:23:00;4.43;;;4.00;;
8478;SDS011;4276;49.354;6.804;2023-06-14T07:25:27;4.25;;;3.75;;
8478;SDS011;4276;49.354;6.804;2023-06-14T07:27:54;4.30;;;3.90;;
8478;SDS011;4276;49.354;6.804;2023-06-14T07:30:20;5.13;;;4.13;;
8478;SDS011;4276;49.354;6.804;2023-06-14T07:32:47;6.10;;;3.90;;
8478;SDS011;4276;49.354;6.804;2023-06-14T07:35:14;4.38;;;3.97;;
8478;SDS011;4276;49.354;6.804;2023-06-14T07:37:41;7.53;;;3.90;;
8478;SDS011;4276;49.354;6.804;2023-06-14T07:40:07;4.70;;;4.20;;
8478;SDS011;4276;49.354;6.804;2023-06-14T07:42:34;4.28;;;3.80;;
8478;SDS011;4276;49.354;6.804;2023-06-14T07:45:02;4.03;;;3.72;;
8478;SDS011;4276;49.354;6.804;2023-06-14T07:47:29;4.50;;;4.07;;
8478;SDS011;4276;49.354;6.804;2023-06-14T07:49:57;4.63;;;4.20;;
8478;SDS011;4276;49.354;6.804;2023-06-14T07:52:23;4.93;;;4.25;;
8478;SDS011;4276;49.354;6.804;2023-06-14T07:54:50;4.80;;;4.15;;
8478;SDS011;4276;49.354;6.804;2023-06-14T07:57:16;4.07;;;3.72;;
8478;SDS011;4276;49.354;6.804;2023-06-14T07:59:46;5.53;;;4.13;;
8478;SDS011;4276;49.354;6.804;2023-06-14T08:02:12;4.20;;;3.80;;
8478;SDS011;4276;49.354;6.804;2023-06-14T08:04:39;4.38;;;3.97;;
8478;SDS011;4276;49.354;6.804;2023-06-14T08:07:06;5.18;;;4.40;;
8478;SDS011;4276;49.354;6.804;2023-06-14T08:09:33;4.72;;;4.32;;
8478;SDS011;4276;49.354;6.804;2023-06-14T08:12:00;4.57;;;3.70;;
8478;SDS011;4276;49.354;6.804;2023-06-14T08:14:27;4.30;;;3.90;;
8478;SDS011;4276;49.354;6.804;2023-06-14T08:16:55;5.03;;;4.50;;
8478;SDS011;4276;49.354;6.804;2023-06-14T08:19:21;5.35;;;3.70;;
8478;SDS011;4276;49.354;6.804;2023-06-14T08:21:48;4.25;;;3.95;;
8478;SDS011;4276;49.354;6.804;2023-06-14T08:24:14;3.97;;;3.67;;
8478;SDS011;4276;49.354;6.804;2023-06-14T08:26:41;4.20;;;3.60;;
8478;SDS011;4276;49.354;6.804;2023-06-14T08:29:07;4.68;;;4.13;;
8478;SDS011;4276;49.354;6.804;2023-06-14T08:31:34;4.90;;;3.88;;
8478;SDS011;4276;49.354;6.804;2023-06-14T08:34:01;4.32;;;3.92;;
8478;SDS011;4276;49.354;6.804;2023-06-14T08:36:30;7.50;;;5.15;;
8478;SDS011;4276;49.354;6.804;2023-06-14T08:38:57;6.03;;;4.13;;
8478;SDS011;4276;49.354;6.804;2023-06-14T08:41:23;3.85;;;3.65;;
8478;SDS011;4276;49.354;6.804;2023-06-14T08:43:53;6.03;;;3.83;;
8478;SDS011;4276;49.354;6.804;2023-06-14T08:46:19;4.38;;;3.72;;
8478;SDS011;4276;49.354;6.804;2023-06-14T08:48:46;4.63;;;3.80;;
8478;SDS011;4276;49.354;6.804;2023-06-14T08:51:17;4.40;;;3.55;;
8478;SDS011;4276;49.354;6.804;2023-06-14T08:53:45;9.70;;;4.60;;
8478;SDS011;4276;49.354;6.804;2023-06-14T08:56:12;4.40;;;4.00;;
8478;SDS011;4276;49.354;6.804;2023-06-14T08:58:42;5.18;;;3.35;;
8478;SDS011;4276;49.354;6.804;2023-06-14T09:01:11;3.85;;;3.53;;
8478;SDS011;4276;49.354;6.804;2023-06-14T09:03:43;3.70;;;3.40;;
8478;SDS011;4276;49.354;6.804;2023-06-14T09:06:11;5.50;;;4.43;;
8478;SDS011;4276;49.354;6.804;2023-06-14T09:08:43;4.88;;;3.70;;
8478;SDS011;4276;49.354;6.804;2023-06-14T09:11:10;5.85;;;3.78;;
8478;SDS011;4276;49.354;6.804;2023-06-14T09:13:38;3.72;;;3.42;;
8478;SDS011;4276;49.354;6.804;2023-06-14T09:16:05;4.18;;;3.78;;
8478;SDS011;4276;49.354;6.804;2023-06-14T09:21:11;3.75;;;3.55;;
8478;SDS011;4276;49.354;6.804;2023-06-14T09:23:41;7.15;;;4.10;;
8478;SDS011;4276;49.354;6.804;2023-06-14T09:26:10;3.95;;;3.65;;
8478;SDS011;4276;49.354;6.804;2023-06-14T09:28:43;7.88;;;4.50;;
8478;SDS011;4276;49.354;6.804;2023-06-14T09:31:15;4.18;;;3.78;;
8478;SDS011;4276;49.354;6.804;2023-06-14T09:33:46;10.98;;;4.13;;
8478;SDS011;4276;49.354;6.804;2023-06-14T09:36:16;5.38;;;3.92;;
8478;SDS011;4276;49.354;6.804;2023-06-14T09:38:51;5.32;;;4.00;;
8478;SDS011;4276;49.354;6.804;2023-06-14T09:41:34;4.45;;;3.90;;
8478;SDS011;4276;49.354;6.804;2023-06-14T09:44:02;4.10;;;3.70;;
8478;SDS011;4276;49.354;6.804;2023-06-14T09:46:35;4.88;;;3.90;;
8478;SDS011;4276;49.354;6.804;2023-06-14T09:49:03;4.40;;;4.00;;
8478;SDS011;4276;49.354;6.804;2023-06-14T09:51:30;3.92;;;3.58;;
8478;SDS011;4276;49.354;6.804;2023-06-14T09:53:58;6.03;;;3.70;;
8478;SDS011;4276;49.354;6.804;2023-06-14T09:56:41;4.85;;;3.65;;
8478;SDS011;4276;49.354;6.804;2023-06-14T09:59:11;4.10;;;3.72;;
8478;SDS011;4276;49.354;6.804;2023-06-14T10:01:41;4.07;;;3.78;;
8478;SDS011;4276;49.354;6.804;2023-06-14T10:04:09;4.22;;;3.88;;
8478;SDS011;4276;49.354;6.804;2023-06-14T10:06:38;5.65;;;3.60;;
8478;SDS011;4276;49.354;6.804;2023-06-14T10:09:07;4.57;;;3.95;;
8478;SDS011;4276;49.354;6.804;2023-06-14T10:11:35;6.40;;;3.90;;
8478;SDS011;4276;49.354;6.804;2023-06-14T10:14:03;4.30;;;3.90;;
8478;SDS011;4276;49.354;6.804;2023-06-14T10:16:32;4.70;;;3.72;;
8478;SDS011;4276;49.354;6.804;2023-06-14T10:24:13;3.85;;;3.55;;
8478;SDS011;4276;49.354;6.804;2023-06-14T10:26:52;4.55;;;3.67;;
8478;SDS011;4276;49.354;6.804;2023-06-14T10:29:23;3.90;;;3.55;;
8478;SDS011;4276;49.354;6.804;2023-06-14T10:31:50;4.65;;;3.63;;
8478;SDS011;4276;49.354;6.804;2023-06-14T10:34:26;4.13;;;3.75;;
8478;SDS011;4276;49.354;6.804;2023-06-14T10:37:06;4.68;;;3.95;;
8478;SDS011;4276;49.354;6.804;2023-06-14T10:39:40;5.10;;;3.85;;
8478;SDS011;4276;49.354;6.804;2023-06-14T10:42:08;3.67;;;3.47;;
8478;SDS011;4276;49.354;6.804;2023-06-14T10:47:11;4.13;;;3.72;;
8478;SDS011;4276;49.354;6.804;2023-06-14T10:52:14;4.57;;;4.10;;
8478;SDS011;4276;49.354;6.804;2023-06-14T10:57:30;5.30;;;3.88;;
8478;SDS011;4276;49.354;6.804;2023-06-14T11:00:16;3.80;;;3.50;;
8478;SDS011;4276;49.354;6.804;2023-06-14T11:05:20;3.72;;;3.53;;
8478;SDS011;4276;49.354;6.804;2023-06-14T11:10:44;4.90;;;3.88;;
8478;SDS011;4276;49.354;6.804;2023-06-14T11:13:15;4.15;;;3.60;;
8478;SDS011;4276;49.354;6.804;2023-06-14T11:15:46;4.22;;;3.83;;
8478;SDS011;4276;49.354;6.804;2023-06-14T11:18:14;4.20;;;3.90;;
8478;SDS011;4276;49.354;6.804;2023-06-14T11:20:42;4.30;;;3.80;;
8478;SDS011;4276;49.354;6.804;2023-06-14T11:23:12;4.40;;;3.42;;
8478;SDS011;4276;49.354;6.804;2023-06-14T11:25:39;4.15;;;3.63;;
8478;SDS011;4276;49.354;6.804;2023-06-14T11:28:05;5.65;;;4.20;;
8478;SDS011;4276;49.354;6.804;2023-06-14T11:30:32;4.25;;;3.85;;
8478;SDS011;4276;49.354;6.804;2023-06-14T11:32:58;4.10;;;3.78;;
8478;SDS011;4276;49.354;6.804;2023-06-14T11:35:25;4.55;;;3.88;;
8478;SDS011;4276;49.354;6.804;2023-06-14T11:37:53;5.25;;;3.70;;
8478;SDS011;4276;49.354;6.804;2023-06-14T11:40:26;3.95;;;3.65;;
8478;SDS011;4276;49.354;6.804;2023-06-14T11:43:00;5.72;;;4.03;;
8478;SDS011;4276;49.354;6.804;2023-06-14T11:45:28;4.30;;;4.00;;
8478;SDS011;4276;49.354;6.804;2023-06-14T11:47:55;4.35;;;4.00;;
8478;SDS011;4276;49.354;6.804;2023-06-14T11:50:23;4.05;;;3.65;;
8478;SDS011;4276;49.354;6.804;2023-06-14T11:52:56;4.10;;;3.70;;
8478;SDS011;4276;49.354;6.804;2023-06-14T11:55:26;3.80;;;3.40;;
8478;SDS011;4276;49.354;6.804;2023-06-14T11:57:55;4.18;;;3.30;;
8478;SDS011;4276;49.354;6.804;2023-06-14T12:00:25;3.92;;;3.60;;
8478;SDS011;4276;49.354;6.804;2023-06-14T12:02:54;8.18;;;3.95;;
8478;SDS011;4276;49.354;6.804;2023-06-14T12:05:24;4.88;;;3.58;;
8478;SDS011;4276;49.354;6.804;2023-06-14T12:08:02;5.03;;;3.75;;
8478;SDS011;4276;49.354;6.804;2023-06-14T12:10:29;4.20;;;3.75;;
8478;SDS011;4276;49.354;6.804;2023-06-14T12:12:57;3.75;;;3.50;;
8478;SDS011;4276;49.354;6.804;2023-06-14T12:15:27;4.57;;;3.70;;
8478;SDS011;4276;49.354;6.804;2023-06-14T12:17:55;5.78;;;3.40;;
8478;SDS011;4276;49.354;6.804;2023-06-14T12:20:22;4.07;;;3.70;;
8478;SDS011;4276;49.354;6.804;2023-06-14T12:22:54;4.03;;;3.50;;
8478;SDS011;4276;49.354;6.804;2023-06-14T12:27:54;3.72;;;3.42;;
8478;SDS011;4276;49.354;6.804;2023-06-14T12:30:22;5.90;;;3.92;;
8478;SDS011;4276;49.354;6.804;2023-06-14T12:32:48;6.32;;;3.70;;
8478;SDS011;4276;49.354;6.804;2023-06-14T12:35:15;4.45;;;3.47;;
8478;SDS011;4276;49.354;6.804;2023-06-14T12:37:42;3.90;;;3.45;;
8478;SDS011;4276;49.354;6.804;2023-06-14T12:40:09;9.07;;;3.78;;
8478;SDS011;4276;49.354;6.804;2023-06-14T12:42:37;3.63;;;3.33;;
8478;SDS011;4276;49.354;6.804;2023-06-14T12:45:04;4.43;;;3.33;;
8478;SDS011;4276;49.354;6.804;2023-06-14T12:47:31;3.65;;;3.35;;
8478;SDS011;4276;49.354;6.804;2023-06-14T12:49:58;3.75;;;3.35;;
8478;SDS011;4276;49.354;6.804;2023-06-14T12:52:24;4.28;;;3.60;;
8478;SDS011;4276;49.354;6.804;2023-06-14T12:54:51;4.95;;;3.40;;
8478;SDS011;4276;49.354;6.804;2023-06-14T12:57:17;9.60;;;3.67;;
8478;SDS011;4276;49.354;6.804;2023-06-14T12:59:44;4.13;;;3.45;;
8478;SDS011;4276;49.354;6.804;2023-06-14T13:02:14;4.07;;;3.67;;
8478;SDS011;4276;49.354;6.804;2023-06-14T13:04:43;3.42;;;3.15;;
8478;SDS011;4276;49.354;6.804;2023-06-14T13:07:10;6.53;;;4.05;;
8478;SDS011;4276;49.354;6.804;2023-06-14T13:09:41;5.93;;;3.67;;
8478;SDS011;4276;49.354;6.804;2023-06-14T13:12:08;3.70;;;3.50;;
8478;SDS011;4276;49.354;6.804;2023-06-14T13:14:37;7.57;;;4.05;;
8478;SDS011;4276;49.354;6.804;2023-06-14T13:17:05;3.95;;;3.08;;
8478;SDS011;4276;49.354;6.804;2023-06-14T13:19:31;3.95;;;3.50;;
8478;SDS011;4276;49.354;6.804;2023-06-14T13:21:58;3.55;;;3.10;;
8478;SDS011;4276;49.354;6.804;2023-06-14T13:24:24;3.17;;;2.97;;
8478;SDS011;4276;49.354;6.804;2023-06-14T13:26:52;3.63;;;3.25;;
8478;SDS011;4276;49.354;6.804;2023-06-14T13:29:18;3.15;;;2.95;;
8478;SDS011;4276;49.354;6.804;2023-06-14T13:31:45;3.53;;;3.22;;
8478;SDS011;4276;49.354;6.804;2023-06-14T13:34:11;3.50;;;3.20;;
8478;SDS011;4276;49.354;6.804;2023-06-14T13:36:38;4.63;;;3.13;;
8478;SDS011;4276;49.354;6.804;2023-06-14T13:39:05;5.70;;;3.25;;
8478;SDS011;4276;49.354;6.804;2023-06-14T13:41:32;4.20;;;3.33;;
8478;SDS011;4276;49.354;6.804;2023-06-14T13:44:00;4.60;;;3.53;;
8478;SDS011;4276;49.354;6.804;2023-06-14T13:46:30;4.10;;;3.58;;
8478;SDS011;4276;49.354;6.804;2023-06-14T13:48:57;3.53;;;3.22;;
8478;SDS011;4276;49.354;6.804;2023-06-14T13:51:24;3.25;;;2.88;;
8478;SDS011;4276;49.354;6.804;2023-06-14T13:53:53;3.28;;;3.00;;
8478;SDS011;4276;49.354;6.804;2023-06-14T13:56:20;3.97;;;2.90;;
8478;SDS011;4276;49.354;6.804;2023-06-14T13:58:48;3.38;;;2.90;;
8478;SDS011;4276;49.354;6.804;2023-06-14T14:01:17;3.75;;;3.00;;
8478;SDS011;4276;49.354;6.804;2023-06-14T14:03:46;3.45;;;3.13;;
8478;SDS011;4276;49.354;6.804;2023-06-14T14:06:13;5.28;;;3.30;;
8478;SDS011;4276;49.354;6.804;2023-06-14T14:08:40;3.65;;;2.90;;
8478;SDS011;4276;49.354;6.804;2023-06-14T14:11:06;2.97;;;2.78;;
8478;SDS011;4276;49.354;6.804;2023-06-14T14:13:33;3.63;;;3.30;;
8478;SDS011;4276;49.354;6.804;2023-06-14T14:16:02;3.97;;;3.05;;
8478;SDS011;4276;49.354;6.804;2023-06-14T14:18:29;4.18;;;3.20;;
8478;SDS011;4276;49.354;6.804;2023-06-14T14:20:57;3.83;;;2.95;;
8478;SDS011;4276;49.354;6.804;2023-06-14T14:23:24;3.15;;;2.80;;
8478;SDS011;4276;49.354;6.804;2023-06-14T14:25:51;4.45;;;3.17;;
8478;SDS011;4276;49.354;6.804;2023-06-14T14:28:17;3.10;;;2.80;;
8478;SDS011;4276;49.354;6.804;2023-06-14T14:30:46;3.28;;;3.08;;
8478;SDS011;4276;49.354;6.804;2023-06-14T14:33:14;5.50;;;3.22;;
8478;SDS011;4276;49.354;6.804;2023-06-14T14:35:43;6.05;;;2.90;;
8478;SDS011;4276;49.354;6.804;2023-06-14T14:38:12;3.03;;;2.83;;
8478;SDS011;4276;49.354;6.804;2023-06-14T14:40:39;2.80;;;2.40;;
8478;SDS011;4276;49.354;6.804;2023-06-14T14:43:06;3.20;;;2.92;;
8478;SDS011;4276;49.354;6.804;2023-06-14T14:45:33;3.40;;;3.08;;
8478;SDS011;4276;49.354;6.804;2023-06-14T14:48:00;3.20;;;2.72;;
8478;SDS011;4276;49.354;6.804;2023-06-14T14:50:27;3.35;;;2.88;;
8478;SDS011;4276;49.354;6.804;2023-06-14T14:52:53;2.80;;;2.58;;
8478;SDS011;4276;49.354;6.804;2023-06-14T14:55:20;3.22;;;2.45;;
8478;SDS011;4276;49.354;6.804;2023-06-14T14:57:46;2.80;;;2.60;;
8478;SDS011;4276;49.354;6.804;2023-06-14T15:00:16;2.83;;;2.58;;
8478;SDS011;4276;49.354;6.804;2023-06-14T15:02:43;3.20;;;2.75;;
8478;SDS011;4276;49.354;6.804;2023-06-14T15:05:09;3.15;;;2.75;;
8478;SDS011;4276;49.354;6.804;2023-06-14T15:07:36;3.53;;;2.50;;
8478;SDS011;4276;49.354;6.804;2023-06-14T15:10:05;3.28;;;2.85;;
8478;SDS011;4276;49.354;6.804;2023-06-14T15:12:32;2.60;;;2.40;;
8478;SDS011;4276;49.354;6.804;2023-06-14T15:14:58;3.20;;;2.92;;
8478;SDS011;4276;49.354;6.804;2023-06-14T15:17:25;2.65;;;2.35;;
8478;SDS011;4276;49.354;6.804;2023-06-14T15:19:52;3.55;;;2.50;;
8478;SDS011;4276;49.354;6.804;2023-06-14T15:22:19;2.65;;;2.45;;
8478;SDS011;4276;49.354;6.804;2023-06-14T15:24:45;4.07;;;2.70;;
8478;SDS011;4276;49.354;6.804;2023-06-14T15:27:15;4.07;;;2.70;;
8478;SDS011;4276;49.354;6.804;2023-06-14T15:29:42;2.67;;;2.50;;
8478;SDS011;4276;49.354;6.804;2023-06-14T15:32:09;2.63;;;2.40;;
8478;SDS011;4276;49.354;6.804;2023-06-14T15:34:36;3.60;;;2.65;;
8478;SDS011;4276;49.354;6.804;2023-06-14T15:37:05;3.35;;;2.65;;
8478;SDS011;4276;49.354;6.804;2023-06-14T15:39:34;3.50;;;3.30;;
8478;SDS011;4276;49.354;6.804;2023-06-14T15:42:02;2.58;;;2.38;;
8478;SDS011;4276;49.354;6.804;2023-06-14T15:44:28;3.28;;;2.97;;
8478;SDS011;4276;49.354;6.804;2023-06-14T15:46:55;3.38;;;2.40;;